createdAt,value
2017-11-20T00:02:00.882Z,5.90
2017-11-20T00:04:28.638Z,5.80
2017-11-20T00:06:56.396Z,5.80
2017-11-20T00:09:24.159Z,5.80
2017-11-20T00:11:51.923Z,5.80
2017-11-20T00:14:18.918Z,5.80
2017-11-20T00:16:45.910Z,5.80
2017-11-20T00:19:12.904Z,5.80
2017-11-20T00:21:39.894Z,5.80
2017-11-20T00:24:06.906Z,5.80
2017-11-20T00:26:33.895Z,5.70
2017-11-20T00:29:01.659Z,5.60
2017-11-20T00:31:29.415Z,5.70
2017-11-20T00:33:56.419Z,5.60
2017-11-20T00:36:23.407Z,5.60
2017-11-20T00:38:50.407Z,5.60
2017-11-20T00:41:17.398Z,5.60
2017-11-20T00:43:45.166Z,5.60
2017-11-20T00:46:12.924Z,5.60
2017-11-20T00:48:39.921Z,5.60
2017-11-20T00:51:06.911Z,5.50
2017-11-20T00:53:33.923Z,5.50
2017-11-20T00:56:00.915Z,5.50
2017-11-20T00:58:28.734Z,5.50
2017-11-20T01:00:55.730Z,5.50
2017-11-20T01:03:23.491Z,5.50
2017-11-20T01:05:51.250Z,5.50
2017-11-20T01:08:19.009Z,5.40
2017-11-20T01:10:46.768Z,5.40
2017-11-20T01:13:13.771Z,5.30
2017-11-20T01:15:40.767Z,5.30
2017-11-20T01:18:08.523Z,5.30
2017-11-20T01:20:35.522Z,5.30
2017-11-20T01:23:02.512Z,5.30
2017-11-20T01:25:29.522Z,5.30
2017-11-20T01:27:56.513Z,5.30
2017-11-20T01:30:24.278Z,5.30
2017-11-20T01:32:52.039Z,5.30
2017-11-20T01:35:19.040Z,5.30
2017-11-20T01:37:46.027Z,5.30
2017-11-20T01:40:13.031Z,5.30
2017-11-20T01:42:40.024Z,5.30
2017-11-20T01:45:07.793Z,5.30
2017-11-20T01:47:34.780Z,5.20
2017-11-20T01:50:01.771Z,5.20
2017-11-20T01:52:28.764Z,5.20
2017-11-20T01:54:55.759Z,5.20
2017-11-20T01:57:22.750Z,5.10
2017-11-20T01:59:49.747Z,5.10
2017-11-20T02:02:16.747Z,5.10
2017-11-20T02:04:43.743Z,5.10
2017-11-20T02:07:10.735Z,5.10
2017-11-20T02:09:37.727Z,5.10
2017-11-20T02:12:04.722Z,5.10
2017-11-20T02:14:31.715Z,5.10
2017-11-20T02:16:58.717Z,5.10
2017-11-20T02:19:25.720Z,5.10
2017-11-20T02:21:52.707Z,5.00
2017-11-20T02:24:19.694Z,5.00
2017-11-20T02:26:46.690Z,4.90
2017-11-20T02:29:13.679Z,5.00
2017-11-20T02:31:40.681Z,4.90
2017-11-20T02:34:07.680Z,4.90
2017-11-20T02:36:34.673Z,4.90
2017-11-20T02:39:01.674Z,5.00
2017-11-20T02:41:28.682Z,4.90
2017-11-20T02:43:55.677Z,4.90
2017-11-20T02:46:23.436Z,4.90
2017-11-20T02:48:50.422Z,4.90
2017-11-20T02:51:17.420Z,4.90
2017-11-20T02:53:44.417Z,4.90
2017-11-20T02:56:11.411Z,4.90
2017-11-20T02:58:38.397Z,4.90
2017-11-20T03:01:05.419Z,4.80
2017-11-20T03:03:32.412Z,4.90
2017-11-20T03:05:59.407Z,4.80
2017-11-20T03:08:27.158Z,4.70
2017-11-20T03:10:54.162Z,4.70
2017-11-20T03:13:21.924Z,4.70
2017-11-20T03:15:48.919Z,4.70
2017-11-20T03:18:15.916Z,4.60
2017-11-20T03:20:42.907Z,4.60
2017-11-20T03:23:10.659Z,4.50
2017-11-20T03:25:37.670Z,4.50
2017-11-20T03:28:04.660Z,4.40
2017-11-20T03:30:31.659Z,4.40
2017-11-20T03:32:58.642Z,4.30
2017-11-20T03:35:25.640Z,4.20
2017-11-20T03:37:52.632Z,4.20
2017-11-20T03:40:19.627Z,4.20
2017-11-20T03:42:46.618Z,4.10
2017-11-20T03:45:13.610Z,4.10
2017-11-20T03:47:40.607Z,4.20
2017-11-20T03:50:07.591Z,4.20
2017-11-20T03:52:34.591Z,4.30
2017-11-20T03:55:01.587Z,4.30
2017-11-20T03:57:28.588Z,4.20
2017-11-20T03:59:55.571Z,4.20
2017-11-20T04:02:22.570Z,4.10
2017-11-20T04:04:49.558Z,4.10
2017-11-20T04:07:16.561Z,4.00
2017-11-20T04:09:43.545Z,4.00
2017-11-20T04:12:11.300Z,3.90
2017-11-20T04:14:39.055Z,3.90
2017-11-20T04:17:06.822Z,3.80
2017-11-20T04:19:33.822Z,3.80
2017-11-20T04:22:00.815Z,3.90
2017-11-20T04:24:27.807Z,3.80
2017-11-20T04:26:54.802Z,3.90
2017-11-20T04:29:22.554Z,3.90
2017-11-20T04:31:49.559Z,4.00
2017-11-20T04:34:16.551Z,3.90
2017-11-20T04:36:44.306Z,4.00
2017-11-20T04:39:11.303Z,4.00
2017-11-20T04:41:38.294Z,3.90
2017-11-20T04:44:05.297Z,4.00
2017-11-20T04:46:32.292Z,4.10
2017-11-20T04:48:59.287Z,4.00
2017-11-20T04:51:26.279Z,4.00
2017-11-20T04:53:53.278Z,3.90
2017-11-20T04:56:20.267Z,4.00
2017-11-20T04:58:47.263Z,4.00
2017-11-20T05:01:14.258Z,4.00
2017-11-20T05:03:41.257Z,4.00
2017-11-20T05:06:08.247Z,4.00
2017-11-20T05:08:35.251Z,4.00
2017-11-20T05:11:02.248Z,4.00
2017-11-20T05:13:29.240Z,4.00
2017-11-20T05:15:56.226Z,4.00
2017-11-20T05:18:23.226Z,4.00
2017-11-20T05:20:50.224Z,4.10
2017-11-20T05:23:17.227Z,4.10
2017-11-20T05:25:44.222Z,4.10
2017-11-20T05:28:11.231Z,4.10
2017-11-20T05:30:38.222Z,4.10
2017-11-20T05:33:05.994Z,4.20
2017-11-20T05:35:33.751Z,4.20
2017-11-20T05:38:01.515Z,4.20
2017-11-20T05:40:29.268Z,4.20
2017-11-20T05:42:56.278Z,4.20
2017-11-20T05:45:23.274Z,4.20
2017-11-20T05:47:51.032Z,4.20
2017-11-20T05:50:18.798Z,4.20
2017-11-20T05:52:46.555Z,4.20
2017-11-20T05:55:14.319Z,4.20
2017-11-20T05:57:42.076Z,4.20
2017-11-20T06:00:09.071Z,4.20
2017-11-20T06:02:36.062Z,4.20
2017-11-20T06:05:03.069Z,4.20
2017-11-20T06:07:30.067Z,4.20
2017-11-20T06:09:57.827Z,4.10
2017-11-20T06:12:25.584Z,4.10
2017-11-20T06:14:52.586Z,4.10
2017-11-20T06:17:19.575Z,4.10
2017-11-20T06:19:46.570Z,4.10
2017-11-20T06:22:13.566Z,4.10
2017-11-20T06:24:40.631Z,4.10
2017-11-20T06:27:08.386Z,4.20
2017-11-20T06:29:36.159Z,4.20
2017-11-20T06:32:03.912Z,4.10
2017-11-20T06:34:31.676Z,4.10
2017-11-20T06:36:59.430Z,4.10
2017-11-20T06:39:26.439Z,4.10
2017-11-20T06:41:53.445Z,4.10
2017-11-20T06:44:21.203Z,4.00
2017-11-20T06:46:48.959Z,4.00
2017-11-20T06:49:16.723Z,4.00
2017-11-20T06:51:44.478Z,3.90
2017-11-20T06:54:11.471Z,3.90
2017-11-20T06:56:38.468Z,3.90
2017-11-20T06:59:05.455Z,3.90
2017-11-20T07:01:32.460Z,3.90
2017-11-20T07:03:59.454Z,3.90
2017-11-20T07:06:26.459Z,4.00
2017-11-20T07:08:54.211Z,4.00
2017-11-20T07:11:21.219Z,4.00
2017-11-20T07:13:48.211Z,4.00
2017-11-20T07:16:15.975Z,4.00
2017-11-20T07:18:43.735Z,4.00
2017-11-20T07:21:11.499Z,4.10
2017-11-20T07:23:39.250Z,4.10
2017-11-20T07:26:12.215Z,4.10
2017-11-20T07:28:57.946Z,4.10
2017-11-20T07:31:28.819Z,4.10
2017-11-20T07:34:01.635Z,4.10
2017-11-20T07:36:34.627Z,4.10
2017-11-20T07:39:07.535Z,4.20
2017-11-20T07:41:40.512Z,4.20
2017-11-20T07:44:07.503Z,4.30
2017-11-20T07:46:34.500Z,4.30
2017-11-20T07:49:02.258Z,4.60
2017-11-20T07:51:30.032Z,4.60
2017-11-20T07:53:57.783Z,4.60
2017-11-20T07:56:25.550Z,4.60
2017-11-20T07:58:53.307Z,4.60
2017-11-20T08:01:21.070Z,4.60
2017-11-20T08:03:48.832Z,4.60
2017-11-20T08:06:15.838Z,4.60
2017-11-20T08:08:42.831Z,4.70
2017-11-20T08:11:10.586Z,4.70
2017-11-20T08:13:38.348Z,4.70
2017-11-20T08:16:05.355Z,4.70
2017-11-20T08:18:32.347Z,4.80
2017-11-20T08:21:00.111Z,4.80
2017-11-20T08:23:27.871Z,4.80
2017-11-20T08:25:55.635Z,4.80
2017-11-20T08:28:23.391Z,4.80
2017-11-20T08:30:50.410Z,4.80
2017-11-20T08:33:17.403Z,4.80
2017-11-20T08:35:45.163Z,4.90
2017-11-20T08:38:12.927Z,4.90
2017-11-20T08:40:40.683Z,4.90
2017-11-20T08:43:08.451Z,4.90
2017-11-20T08:45:36.199Z,4.90
2017-11-20T08:48:03.972Z,4.90
2017-11-20T08:50:31.728Z,4.90
2017-11-20T08:52:59.500Z,5.00
2017-11-20T08:55:27.264Z,4.90
2017-11-20T08:57:55.029Z,4.90
2017-11-20T09:00:22.791Z,5.00
2017-11-20T09:02:50.563Z,5.10
2017-11-20T09:05:18.315Z,5.10
2017-11-20T09:07:46.131Z,5.10
2017-11-20T09:10:13.125Z,5.10
2017-11-20T09:12:40.887Z,5.10
2017-11-20T09:15:08.651Z,5.20
2017-11-20T09:17:36.418Z,5.10
2017-11-20T09:20:04.176Z,5.10
2017-11-20T09:22:31.943Z,5.20
2017-11-20T09:24:59.703Z,5.10
2017-11-20T09:27:27.459Z,5.10
2017-11-20T09:29:55.215Z,5.10
2017-11-20T09:32:22.212Z,5.10
2017-11-20T09:34:49.208Z,5.10
2017-11-20T09:37:16.203Z,5.10
2017-11-20T09:39:43.204Z,5.10
2017-11-20T09:42:10.208Z,5.10
2017-11-20T09:44:37.204Z,5.10
2017-11-20T09:47:04.967Z,5.10
2017-11-20T09:49:32.739Z,5.10
2017-11-20T09:51:59.735Z,5.10
2017-11-20T09:54:26.731Z,5.10
2017-11-20T09:56:53.727Z,5.10
2017-11-20T09:59:20.728Z,5.10
2017-11-20T10:01:47.718Z,5.20
2017-11-20T10:04:14.715Z,5.20
2017-11-20T10:06:41.711Z,5.40
2017-11-20T10:09:08.711Z,5.40
2017-11-20T10:11:35.702Z,5.40
2017-11-20T10:14:02.702Z,5.50
2017-11-20T10:16:29.691Z,5.50
2017-11-20T10:18:56.722Z,5.50
2017-11-20T10:21:23.711Z,5.40
2017-11-20T10:23:51.571Z,5.60
2017-11-20T10:26:18.563Z,5.60
2017-11-20T10:28:45.559Z,5.60
2017-11-20T10:31:12.554Z,5.70
2017-11-20T10:33:39.551Z,5.60
2017-11-20T10:36:06.542Z,5.60
2017-11-20T10:38:33.543Z,5.50
2017-11-20T10:41:00.537Z,5.60
2017-11-20T10:43:27.544Z,5.60
2017-11-20T10:45:54.534Z,5.60
2017-11-20T10:48:21.527Z,5.70
2017-11-20T10:50:48.524Z,5.70
2017-11-20T10:53:15.531Z,5.70
2017-11-20T10:55:43.291Z,5.80
2017-11-20T10:58:11.047Z,5.80
2017-11-20T11:00:38.818Z,5.90
2017-11-20T11:03:06.576Z,6.00
2017-11-20T11:05:34.333Z,5.90
2017-11-20T11:08:01.332Z,5.90
2017-11-20T11:10:28.328Z,5.90
2017-11-20T11:12:55.327Z,5.90
2017-11-20T11:15:22.333Z,5.90
2017-11-20T11:17:50.099Z,5.80
2017-11-20T11:20:17.868Z,5.90
2017-11-20T11:22:45.619Z,5.80
2017-11-20T11:25:13.384Z,5.70
2017-11-20T11:27:41.144Z,5.80
2017-11-20T11:30:08.924Z,5.80
2017-11-20T11:32:36.665Z,5.80
2017-11-20T11:35:04.427Z,5.80
2017-11-20T11:37:32.186Z,5.80
2017-11-20T11:39:59.187Z,5.80
2017-11-20T11:42:26.179Z,5.90
2017-11-20T11:44:53.187Z,5.90
2017-11-20T11:47:20.187Z,6.00
2017-11-20T11:49:47.950Z,6.00
2017-11-20T11:52:15.706Z,6.00
2017-11-20T11:54:43.467Z,6.10
2017-11-20T11:57:10.451Z,6.10
2017-11-20T11:59:37.447Z,6.10
2017-11-20T12:02:04.458Z,6.10
2017-11-20T12:04:31.456Z,6.10
2017-11-20T12:06:59.216Z,6.20
2017-11-20T12:09:26.972Z,6.10
2017-11-20T12:11:53.983Z,6.20
2017-11-20T12:14:20.967Z,6.10
2017-11-20T12:16:48.736Z,6.00
2017-11-20T12:19:16.500Z,6.00
2017-11-20T12:21:44.257Z,6.00
2017-11-20T12:24:12.011Z,6.10
2017-11-20T12:26:39.019Z,6.00
2017-11-20T12:29:06.017Z,6.10
2017-11-20T12:31:33.784Z,6.10
2017-11-20T12:34:01.549Z,6.10
2017-11-20T12:36:29.331Z,6.10
2017-11-20T12:38:57.063Z,6.10
2017-11-20T12:41:24.831Z,6.10
2017-11-20T12:43:52.584Z,6.20
2017-11-20T12:46:19.602Z,6.20
2017-11-20T12:48:46.591Z,6.30
2017-11-20T12:51:14.355Z,6.20
2017-11-20T12:53:42.106Z,6.20
2017-11-20T12:56:09.866Z,6.30
2017-11-20T12:58:36.875Z,6.30
2017-11-20T13:01:03.880Z,6.30
2017-11-20T13:03:31.637Z,6.40
2017-11-20T13:05:59.399Z,6.40
2017-11-20T13:08:27.146Z,6.30
2017-11-20T13:10:54.173Z,6.30
2017-11-20T13:13:21.162Z,6.30
2017-11-20T13:15:48.162Z,6.30
2017-11-20T13:18:15.159Z,6.20
2017-11-20T13:20:42.170Z,6.20
2017-11-20T13:23:09.172Z,6.20
2017-11-20T13:25:36.167Z,6.20
2017-11-20T13:28:03.181Z,6.30
2017-11-20T13:30:30.953Z,6.30
2017-11-20T13:32:57.947Z,6.30
2017-11-20T13:35:24.942Z,6.30
2017-11-20T13:37:51.958Z,6.30
2017-11-20T13:40:18.955Z,6.30
2017-11-20T13:42:46.518Z,6.40
2017-11-20T13:45:13.511Z,6.40
2017-11-20T13:47:40.503Z,6.30
2017-11-20T13:50:07.500Z,6.30
2017-11-20T13:52:34.499Z,6.30
2017-11-20T13:55:01.486Z,6.30
2017-11-20T13:57:28.484Z,6.30
2017-11-20T13:59:55.478Z,6.30
2017-11-20T14:02:22.481Z,6.30
2017-11-20T14:04:49.476Z,6.30
2017-11-20T14:07:16.471Z,6.30
2017-11-20T14:09:44.236Z,6.30
2017-11-20T14:12:11.242Z,6.30
2017-11-20T14:14:38.234Z,6.30
2017-11-20T14:17:05.994Z,6.30
2017-11-20T14:19:33.759Z,6.30
2017-11-20T14:22:01.510Z,6.20
2017-11-20T14:24:28.522Z,6.20
2017-11-20T14:26:55.517Z,6.20
2017-11-20T14:29:23.280Z,6.20
2017-11-20T14:31:51.033Z,6.20
2017-11-20T14:34:18.023Z,6.20
2017-11-20T14:36:45.012Z,6.20
2017-11-20T14:39:12.017Z,6.20
2017-11-20T14:41:39.007Z,6.20
2017-11-20T14:44:06.023Z,6.20
2017-11-20T14:46:33.794Z,6.20
2017-11-20T14:49:00.809Z,6.20
2017-11-20T14:51:33.739Z,6.20
2017-11-20T14:54:00.741Z,6.20
2017-11-20T14:56:28.131Z,6.30
2017-11-20T14:58:55.130Z,6.30
2017-11-20T15:01:22.882Z,6.30
2017-11-20T15:03:49.893Z,6.30
2017-11-20T15:06:16.892Z,6.30
2017-11-20T15:08:43.904Z,6.30
2017-11-20T15:11:10.887Z,6.20
2017-11-20T15:13:37.882Z,6.20
2017-11-20T15:16:04.883Z,6.20
2017-11-20T15:18:31.879Z,6.30
2017-11-20T15:20:59.639Z,6.30
2017-11-20T15:23:28.230Z,6.20
2017-11-20T15:25:55.995Z,6.30
2017-11-20T15:28:23.755Z,6.30
2017-11-20T15:30:51.514Z,6.30
2017-11-20T15:33:19.276Z,6.20
2017-11-20T15:35:46.275Z,6.20
2017-11-20T15:38:13.328Z,6.20
2017-11-20T15:40:40.327Z,6.20
2017-11-20T15:43:08.120Z,6.30
2017-11-20T15:45:35.155Z,6.30
2017-11-20T15:48:02.151Z,6.30
2017-11-20T15:50:29.155Z,6.30
2017-11-20T15:52:56.136Z,6.20
2017-11-20T15:55:23.905Z,6.20
2017-11-20T15:57:50.886Z,6.20
2017-11-20T16:00:18.647Z,6.20
2017-11-20T16:02:47.050Z,6.20
2017-11-20T16:05:14.051Z,6.20
2017-11-20T16:07:41.060Z,6.20
2017-11-20T16:10:08.059Z,6.10
2017-11-20T16:12:35.055Z,6.10
2017-11-20T16:15:02.051Z,6.10
2017-11-20T16:17:29.806Z,6.20
2017-11-20T16:19:57.578Z,6.20
2017-11-20T16:22:25.334Z,6.10
2017-11-20T16:24:53.095Z,6.20
2017-11-20T16:27:20.859Z,6.20
2017-11-20T16:29:48.618Z,6.20
2017-11-20T16:32:16.375Z,6.20
2017-11-20T16:34:43.397Z,6.20
2017-11-20T16:37:10.386Z,6.20
2017-11-20T16:39:38.147Z,6.20
2017-11-20T16:42:06.027Z,6.20
2017-11-20T16:44:33.026Z,6.20
2017-11-20T16:47:00.029Z,6.20
2017-11-20T16:49:27.014Z,6.30
2017-11-20T16:51:54.014Z,6.30
2017-11-20T16:54:20.998Z,6.20
2017-11-20T16:56:53.928Z,6.20
2017-11-20T16:59:21.684Z,6.30
2017-11-20T17:01:55.284Z,6.30
2017-11-20T17:04:23.039Z,6.30
2017-11-20T17:06:50.890Z,6.30
2017-11-20T17:09:17.867Z,6.30
2017-11-20T17:11:44.867Z,6.30
2017-11-20T17:14:11.860Z,6.20
2017-11-20T17:16:38.856Z,6.30
2017-11-20T17:19:05.845Z,6.30
2017-11-20T17:21:33.604Z,6.40
2017-11-20T17:24:01.367Z,6.30
2017-11-20T17:26:29.132Z,6.10
2017-11-20T17:28:56.891Z,6.00
2017-11-20T17:31:24.655Z,6.00
2017-11-20T17:33:52.407Z,5.90
2017-11-20T17:36:20.172Z,5.80
2017-11-20T17:38:47.937Z,5.70
2017-11-20T17:41:14.952Z,5.70
2017-11-20T17:43:41.939Z,5.60
2017-11-20T17:46:09.694Z,5.50
2017-11-20T17:48:37.463Z,5.50
2017-11-20T17:51:05.236Z,5.50
2017-11-20T17:53:32.995Z,5.50
2017-11-20T17:56:00.746Z,5.50
2017-11-20T17:58:28.519Z,5.50
2017-11-20T18:00:56.278Z,5.50
2017-11-20T18:03:24.038Z,5.50
2017-11-20T18:05:51.799Z,5.50
2017-11-20T18:08:20.069Z,5.50
2017-11-20T18:10:47.158Z,5.50
2017-11-20T18:13:14.150Z,5.50
2017-11-20T18:15:41.147Z,5.40
2017-11-20T18:18:08.155Z,5.40
2017-11-20T18:20:35.208Z,5.40
2017-11-20T18:23:03.090Z,5.40
2017-11-20T18:25:30.094Z,5.40
2017-11-20T18:27:57.099Z,5.40
2017-11-20T18:30:24.469Z,5.40
2017-11-20T18:32:51.481Z,5.50
2017-11-20T18:35:18.470Z,5.50
2017-11-20T18:37:45.483Z,5.50
2017-11-20T18:40:12.487Z,5.50
2017-11-20T18:42:39.510Z,5.70
2017-11-20T18:45:06.499Z,5.70
2017-11-20T18:47:34.256Z,5.80
2017-11-20T18:50:01.251Z,5.80
2017-11-20T18:52:28.233Z,5.90
2017-11-20T18:54:55.237Z,5.90
2017-11-20T18:57:22.230Z,5.90
2017-11-20T18:59:49.228Z,6.00
2017-11-20T19:02:22.094Z,5.90
2017-11-20T19:04:54.967Z,5.90
2017-11-20T19:07:27.708Z,5.90
2017-11-20T19:09:54.704Z,5.90
2017-11-20T19:12:21.699Z,6.00
2017-11-20T19:14:48.699Z,5.90
2017-11-20T19:17:15.699Z,6.00
2017-11-20T19:19:42.694Z,6.00
2017-11-20T19:22:09.699Z,6.00
2017-11-20T19:24:36.699Z,5.90
2017-11-20T19:27:03.704Z,6.00
2017-11-20T19:29:31.754Z,6.00
2017-11-20T19:31:58.756Z,6.00
2017-11-20T19:34:25.769Z,6.00
2017-11-20T19:36:52.760Z,6.00
2017-11-20T19:39:19.765Z,6.10
2017-11-20T19:41:47.516Z,6.20
2017-11-20T19:44:15.276Z,6.20
2017-11-20T19:46:42.288Z,6.20
2017-11-20T19:49:09.279Z,6.20
2017-11-20T19:51:36.292Z,6.30
2017-11-20T19:54:03.282Z,6.30
2017-11-20T19:56:30.290Z,6.30
2017-11-20T19:58:57.287Z,6.30
2017-11-20T20:01:24.296Z,6.30
2017-11-20T20:03:51.284Z,6.30
2017-11-20T20:06:18.291Z,6.30
2017-11-20T20:08:45.325Z,6.20
2017-11-20T20:11:12.310Z,6.30
2017-11-20T20:13:45.183Z,6.40
2017-11-20T20:16:18.809Z,6.40
2017-11-20T20:18:45.855Z,6.40
2017-11-20T20:21:12.860Z,6.40
2017-11-20T20:23:39.855Z,6.40
2017-11-20T20:26:06.850Z,6.40
2017-11-20T20:28:33.852Z,6.40
2017-11-20T20:31:00.855Z,6.40
2017-11-20T20:33:27.858Z,6.40
2017-11-20T20:35:54.847Z,6.50
2017-11-20T20:38:22.615Z,6.50
2017-11-20T20:40:50.379Z,6.60
2017-11-20T20:43:19.114Z,6.60
2017-11-20T20:45:46.142Z,6.60
2017-11-20T20:48:13.167Z,6.60
2017-11-20T20:50:40.930Z,6.70
2017-11-20T20:53:08.700Z,6.70
2017-11-20T20:55:35.739Z,6.70
2017-11-20T20:58:03.509Z,6.70
2017-11-20T21:00:31.260Z,6.70
2017-11-20T21:02:59.611Z,6.70
2017-11-20T21:05:27.033Z,6.70
2017-11-20T21:07:54.496Z,6.60
2017-11-20T21:10:27.134Z,6.50
2017-11-20T21:12:54.993Z,6.60
2017-11-20T21:15:22.001Z,6.60
2017-11-20T21:17:49.008Z,6.70
2017-11-20T21:20:16.024Z,6.70
2017-11-20T21:22:43.045Z,6.70
2017-11-20T21:25:10.065Z,6.80
2017-11-20T21:27:37.068Z,6.80
2017-11-20T21:30:04.138Z,6.90
2017-11-20T21:32:31.900Z,6.90
2017-11-20T21:34:59.716Z,6.90
2017-11-20T21:37:26.714Z,6.90
2017-11-20T21:39:53.739Z,7.00
2017-11-20T21:42:20.747Z,7.00
2017-11-20T21:44:47.775Z,7.00
2017-11-20T21:47:15.544Z,7.00
2017-11-20T21:49:42.555Z,7.10
2017-11-20T21:52:09.563Z,7.10
2017-11-20T21:54:36.578Z,7.10
2017-11-20T21:57:03.563Z,7.00
2017-11-20T21:59:30.579Z,7.00
2017-11-20T22:01:58.061Z,7.00
2017-11-20T22:04:25.076Z,7.00
2017-11-20T22:06:52.080Z,7.00
2017-11-20T22:09:19.852Z,7.10
2017-11-20T22:11:47.659Z,7.10
2017-11-20T22:14:14.670Z,7.10
2017-11-20T22:16:42.434Z,7.20
2017-11-20T22:19:10.204Z,7.20
2017-11-20T22:21:38.741Z,7.20
2017-11-20T22:24:05.772Z,7.20
2017-11-20T22:26:32.784Z,7.20
2017-11-20T22:28:59.795Z,7.30
2017-11-20T22:31:27.635Z,7.20
2017-11-20T22:33:54.668Z,7.20
2017-11-20T22:36:22.463Z,7.30
2017-11-20T22:38:49.467Z,7.30
2017-11-20T22:41:16.476Z,7.40
2017-11-20T22:43:44.778Z,7.50
2017-11-20T22:46:11.808Z,7.40
2017-11-20T22:48:39.576Z,7.50
2017-11-20T22:51:07.349Z,7.60
2017-11-20T22:53:35.107Z,7.60
2017-11-20T22:56:02.873Z,7.60
2017-11-20T22:58:29.870Z,7.60
2017-11-20T23:00:57.398Z,7.70
2017-11-20T23:03:24.387Z,7.70
2017-11-20T23:05:51.387Z,7.70
2017-11-20T23:08:18.923Z,7.70
2017-11-20T23:10:46.316Z,7.60
2017-11-20T23:13:13.320Z,7.60
2017-11-20T23:15:40.625Z,7.60
2017-11-20T23:18:07.615Z,7.60
2017-11-20T23:20:34.623Z,7.60
2017-11-20T23:23:02.827Z,7.70
2017-11-20T23:25:34.753Z,7.60
2017-11-20T23:30:43.104Z,7.60
2017-11-20T23:33:17.583Z,7.60
2017-11-20T23:35:49.187Z,7.70
2017-11-20T23:38:21.199Z,7.70
2017-11-20T23:40:57.598Z,7.80
2017-11-20T23:43:37.493Z,7.80
2017-11-20T23:46:16.604Z,7.80
2017-11-20T23:48:48.073Z,7.80
2017-11-20T23:51:28.573Z,7.80
2017-11-20T23:54:00.605Z,7.70
2017-11-20T23:56:31.056Z,7.70
2017-11-20T23:59:01.197Z,7.80
